Weather at Luray Caverns Airport

Public forecast

Using degrees Fahrenheit for public forecast. Weather courtesy of forecast.io.

Current aviation weather report (METAR) for Luray Caverns Airport

Retrieved 2021/01/27 02:35 UTC (5 minutes ago):

KLUA 270235Z AUTO 00000KT 7SM OVC007 03/03 A2986 RMK AO2

Closest aviation forecast (TAF) to Luray Caverns Airport

Closest forecast is Charlottesville Albemarle Airport, 31.8 nm (58.9 km) S. Retrieved 2021-01-27 00:48 UTC (2 hours ago):

TAF KCHO 262345Z 2700/2724 00000KT P6SM OVC005 FM270300 00000KT 4SM BR SCT005 BKN015 FM271300 00000KT P6SM SCT015 BKN200 FM271800 34004KT P6SM FEW100 SCT200